sensor_id;sensor_type;location;lat;lon;timestamp;P1;durP1;ratioP1;P2;durP2;ratioP2
17915;SDS011;9083;49.156;8.982;2023-05-09T00:01:37;15.37;;;11.47;;
17915;SDS011;9083;49.156;8.982;2023-05-09T00:04:07;16.43;;;11.97;;
17915;SDS011;9083;49.156;8.982;2023-05-09T00:06:33;14.57;;;11.27;;
17915;SDS011;9083;49.156;8.982;2023-05-09T00:09:02;16.97;;;11.17;;
17915;SDS011;9083;49.156;8.982;2023-05-09T00:11:29;18.83;;;12.23;;
17915;SDS011;9083;49.156;8.982;2023-05-09T00:13:55;16.20;;;12.20;;
17915;SDS011;9083;49.156;8.982;2023-05-09T00:16:22;17.57;;;12.63;;
17915;SDS011;9083;49.156;8.982;2023-05-09T00:18:49;22.10;;;13.70;;
17915;SDS011;9083;49.156;8.982;2023-05-09T00:21:16;20.73;;;13.83;;
17915;SDS011;9083;49.156;8.982;2023-05-09T00:23:43;107.87;;;54.90;;
17915;SDS011;9083;49.156;8.982;2023-05-09T00:26:09;34.67;;;20.40;;
17915;SDS011;9083;49.156;8.982;2023-05-09T00:28:36;21.80;;;13.73;;
17915;SDS011;9083;49.156;8.982;2023-05-09T00:31:02;19.37;;;13.03;;
17915;SDS011;9083;49.156;8.982;2023-05-09T00:33:29;22.70;;;14.03;;
17915;SDS011;9083;49.156;8.982;2023-05-09T00:35:55;19.37;;;13.77;;
17915;SDS011;9083;49.156;8.982;2023-05-09T00:38:23;19.37;;;13.37;;
17915;SDS011;9083;49.156;8.982;2023-05-09T00:40:50;24.47;;;13.37;;
17915;SDS011;9083;49.156;8.982;2023-05-09T00:43:16;17.10;;;12.33;;
17915;SDS011;9083;49.156;8.982;2023-05-09T00:45:43;18.13;;;12.13;;
17915;SDS011;9083;49.156;8.982;2023-05-09T00:48:09;16.93;;;12.27;;
17915;SDS011;9083;49.156;8.982;2023-05-09T00:50:36;17.40;;;13.17;;
17915;SDS011;9083;49.156;8.982;2023-05-09T00:53:02;19.70;;;12.83;;
17915;SDS011;9083;49.156;8.982;2023-05-09T00:55:30;18.30;;;13.07;;
17915;SDS011;9083;49.156;8.982;2023-05-09T00:57:57;23.17;;;14.10;;
17915;SDS011;9083;49.156;8.982;2023-05-09T01:00:23;17.80;;;12.87;;
17915;SDS011;9083;49.156;8.982;2023-05-09T01:02:52;16.63;;;12.73;;
17915;SDS011;9083;49.156;8.982;2023-05-09T01:05:19;21.53;;;12.40;;
17915;SDS011;9083;49.156;8.982;2023-05-09T01:07:48;20.67;;;12.67;;
17915;SDS011;9083;49.156;8.982;2023-05-09T01:10:19;22.20;;;12.93;;
17915;SDS011;9083;49.156;8.982;2023-05-09T01:12:58;23.30;;;13.23;;
17915;SDS011;9083;49.156;8.982;2023-05-09T01:15:30;22.90;;;14.03;;
17915;SDS011;9083;49.156;8.982;2023-05-09T01:17:58;19.10;;;12.87;;
17915;SDS011;9083;49.156;8.982;2023-05-09T01:20:27;20.73;;;13.93;;
17915;SDS011;9083;49.156;8.982;2023-05-09T01:23:00;20.37;;;13.50;;
17915;SDS011;9083;49.156;8.982;2023-05-09T01:25:43;23.00;;;14.17;;
17915;SDS011;9083;49.156;8.982;2023-05-09T01:28:18;18.93;;;13.00;;
17915;SDS011;9083;49.156;8.982;2023-05-09T01:30:52;20.43;;;14.13;;
17915;SDS011;9083;49.156;8.982;2023-05-09T01:33:20;23.13;;;14.93;;
17915;SDS011;9083;49.156;8.982;2023-05-09T01:35:47;19.27;;;13.50;;
17915;SDS011;9083;49.156;8.982;2023-05-09T01:38:16;19.90;;;13.73;;
17915;SDS011;9083;49.156;8.982;2023-05-09T01:40:43;19.80;;;13.53;;
17915;SDS011;9083;49.156;8.982;2023-05-09T01:43:10;20.03;;;12.13;;
17915;SDS011;9083;49.156;8.982;2023-05-09T01:45:39;20.73;;;13.10;;
17915;SDS011;9083;49.156;8.982;2023-05-09T01:48:08;15.90;;;12.57;;
17915;SDS011;9083;49.156;8.982;2023-05-09T01:50:35;23.17;;;13.17;;
17915;SDS011;9083;49.156;8.982;2023-05-09T01:53:02;15.90;;;11.90;;
17915;SDS011;9083;49.156;8.982;2023-05-09T01:55:31;21.00;;;13.60;;
17915;SDS011;9083;49.156;8.982;2023-05-09T01:57:58;18.90;;;12.07;;
17915;SDS011;9083;49.156;8.982;2023-05-09T02:00:26;17.93;;;12.53;;
17915;SDS011;9083;49.156;8.982;2023-05-09T02:02:53;17.20;;;12.83;;
17915;SDS011;9083;49.156;8.982;2023-05-09T02:05:21;16.00;;;12.23;;
17915;SDS011;9083;49.156;8.982;2023-05-09T02:07:51;18.73;;;12.27;;
17915;SDS011;9083;49.156;8.982;2023-05-09T02:10:18;21.30;;;12.73;;
17915;SDS011;9083;49.156;8.982;2023-05-09T02:12:45;20.00;;;13.33;;
17915;SDS011;9083;49.156;8.982;2023-05-09T02:15:12;16.43;;;12.50;;
17915;SDS011;9083;49.156;8.982;2023-05-09T02:17:38;18.27;;;12.37;;
17915;SDS011;9083;49.156;8.982;2023-05-09T02:20:06;20.73;;;12.83;;
17915;SDS011;9083;49.156;8.982;2023-05-09T02:22:35;20.20;;;12.73;;
17915;SDS011;9083;49.156;8.982;2023-05-09T02:25:01;19.33;;;13.20;;
17915;SDS011;9083;49.156;8.982;2023-05-09T02:27:29;21.30;;;14.20;;
17915;SDS011;9083;49.156;8.982;2023-05-09T02:29:55;21.20;;;13.17;;
17915;SDS011;9083;49.156;8.982;2023-05-09T02:32:26;21.23;;;13.50;;
17915;SDS011;9083;49.156;8.982;2023-05-09T02:34:53;21.63;;;14.23;;
17915;SDS011;9083;49.156;8.982;2023-05-09T02:37:21;26.17;;;14.73;;
17915;SDS011;9083;49.156;8.982;2023-05-09T02:39:48;23.27;;;14.73;;
17915;SDS011;9083;49.156;8.982;2023-05-09T02:42:17;18.93;;;13.60;;
17915;SDS011;9083;49.156;8.982;2023-05-09T02:44:44;19.83;;;13.67;;
17915;SDS011;9083;49.156;8.982;2023-05-09T02:47:13;22.37;;;14.80;;
17915;SDS011;9083;49.156;8.982;2023-05-09T02:49:40;20.07;;;13.20;;
17915;SDS011;9083;49.156;8.982;2023-05-09T02:52:06;22.67;;;13.73;;
17915;SDS011;9083;49.156;8.982;2023-05-09T02:54:32;19.77;;;12.90;;
17915;SDS011;9083;49.156;8.982;2023-05-09T02:57:00;23.60;;;12.83;;
17915;SDS011;9083;49.156;8.982;2023-05-09T02:59:27;19.40;;;13.13;;
17915;SDS011;9083;49.156;8.982;2023-05-09T03:01:53;19.90;;;13.33;;
17915;SDS011;9083;49.156;8.982;2023-05-09T03:04:19;19.23;;;13.50;;
17915;SDS011;9083;49.156;8.982;2023-05-09T03:06:46;22.43;;;12.57;;
17915;SDS011;9083;49.156;8.982;2023-05-09T03:09:12;16.80;;;11.30;;
17915;SDS011;9083;49.156;8.982;2023-05-09T03:11:39;20.07;;;13.07;;
17915;SDS011;9083;49.156;8.982;2023-05-09T03:14:07;20.10;;;12.70;;
17915;SDS011;9083;49.156;8.982;2023-05-09T03:16:34;21.30;;;14.27;;
17915;SDS011;9083;49.156;8.982;2023-05-09T03:19:01;23.30;;;13.70;;
17915;SDS011;9083;49.156;8.982;2023-05-09T03:21:27;22.33;;;13.97;;
17915;SDS011;9083;49.156;8.982;2023-05-09T03:23:54;21.57;;;12.90;;
17915;SDS011;9083;49.156;8.982;2023-05-09T03:26:20;20.03;;;12.93;;
17915;SDS011;9083;49.156;8.982;2023-05-09T03:28:46;21.60;;;13.27;;
17915;SDS011;9083;49.156;8.982;2023-05-09T03:31:15;19.50;;;13.83;;
17915;SDS011;9083;49.156;8.982;2023-05-09T03:33:41;20.53;;;13.53;;
17915;SDS011;9083;49.156;8.982;2023-05-09T03:36:08;24.60;;;14.83;;
17915;SDS011;9083;49.156;8.982;2023-05-09T03:38:34;19.77;;;12.90;;
17915;SDS011;9083;49.156;8.982;2023-05-09T03:41:01;19.53;;;13.13;;
17915;SDS011;9083;49.156;8.982;2023-05-09T03:43:28;22.83;;;13.83;;
17915;SDS011;9083;49.156;8.982;2023-05-09T03:45:54;20.53;;;13.73;;
17915;SDS011;9083;49.156;8.982;2023-05-09T03:48:22;22.27;;;13.77;;
17915;SDS011;9083;49.156;8.982;2023-05-09T03:50:48;23.70;;;13.77;;
17915;SDS011;9083;49.156;8.982;2023-05-09T03:53:14;20.77;;;13.97;;
17915;SDS011;9083;49.156;8.982;2023-05-09T03:55:41;24.03;;;15.47;;
17915;SDS011;9083;49.156;8.982;2023-05-09T03:58:07;26.03;;;15.47;;
17915;SDS011;9083;49.156;8.982;2023-05-09T04:00:34;21.93;;;14.20;;
17915;SDS011;9083;49.156;8.982;2023-05-09T04:03:00;20.83;;;14.00;;
17915;SDS011;9083;49.156;8.982;2023-05-09T04:05:28;28.80;;;15.23;;
17915;SDS011;9083;49.156;8.982;2023-05-09T04:07:54;21.47;;;13.17;;
17915;SDS011;9083;49.156;8.982;2023-05-09T04:10:21;23.80;;;13.77;;
17915;SDS011;9083;49.156;8.982;2023-05-09T04:12:49;26.43;;;14.47;;
17915;SDS011;9083;49.156;8.982;2023-05-09T04:15:16;22.37;;;14.03;;
17915;SDS011;9083;49.156;8.982;2023-05-09T04:17:42;30.13;;;16.07;;
17915;SDS011;9083;49.156;8.982;2023-05-09T04:20:09;29.53;;;17.03;;
17915;SDS011;9083;49.156;8.982;2023-05-09T04:22:37;27.80;;;16.87;;
17915;SDS011;9083;49.156;8.982;2023-05-09T04:25:04;25.93;;;15.67;;
17915;SDS011;9083;49.156;8.982;2023-05-09T04:27:31;26.93;;;14.07;;
17915;SDS011;9083;49.156;8.982;2023-05-09T04:29:57;23.20;;;14.93;;
17915;SDS011;9083;49.156;8.982;2023-05-09T04:32:24;25.00;;;15.03;;
17915;SDS011;9083;49.156;8.982;2023-05-09T04:34:51;28.67;;;15.17;;
17915;SDS011;9083;49.156;8.982;2023-05-09T04:37:17;26.27;;;15.20;;
17915;SDS011;9083;49.156;8.982;2023-05-09T04:39:45;26.80;;;15.90;;
17915;SDS011;9083;49.156;8.982;2023-05-09T04:42:12;30.13;;;15.70;;
17915;SDS011;9083;49.156;8.982;2023-05-09T04:44:38;26.90;;;16.37;;
17915;SDS011;9083;49.156;8.982;2023-05-09T04:47:04;33.43;;;15.43;;
17915;SDS011;9083;49.156;8.982;2023-05-09T04:49:31;21.20;;;13.97;;
17915;SDS011;9083;49.156;8.982;2023-05-09T04:51:57;25.27;;;15.10;;
17915;SDS011;9083;49.156;8.982;2023-05-09T04:54:24;22.73;;;14.83;;
17915;SDS011;9083;49.156;8.982;2023-05-09T04:56:52;24.37;;;14.80;;
17915;SDS011;9083;49.156;8.982;2023-05-09T04:59:18;26.57;;;15.07;;
17915;SDS011;9083;49.156;8.982;2023-05-09T05:01:45;35.03;;;15.87;;
17915;SDS011;9083;49.156;8.982;2023-05-09T05:04:11;38.50;;;15.97;;
17915;SDS011;9083;49.156;8.982;2023-05-09T05:06:38;23.70;;;14.83;;
17915;SDS011;9083;49.156;8.982;2023-05-09T05:09:04;23.60;;;15.17;;
17915;SDS011;9083;49.156;8.982;2023-05-09T05:11:30;26.63;;;14.13;;
17915;SDS011;9083;49.156;8.982;2023-05-09T05:13:58;25.43;;;15.47;;
17915;SDS011;9083;49.156;8.982;2023-05-09T05:16:25;25.07;;;15.23;;
17915;SDS011;9083;49.156;8.982;2023-05-09T05:18:51;21.13;;;14.20;;
17915;SDS011;9083;49.156;8.982;2023-05-09T05:21:20;30.33;;;15.37;;
17915;SDS011;9083;49.156;8.982;2023-05-09T05:23:47;30.03;;;16.30;;
17915;SDS011;9083;49.156;8.982;2023-05-09T05:26:13;30.73;;;16.47;;
17915;SDS011;9083;49.156;8.982;2023-05-09T05:28:39;26.53;;;15.77;;
17915;SDS011;9083;49.156;8.982;2023-05-09T05:31:07;33.23;;;16.47;;
17915;SDS011;9083;49.156;8.982;2023-05-09T05:33:34;32.23;;;15.73;;
17915;SDS011;9083;49.156;8.982;2023-05-09T05:36:00;26.03;;;16.10;;
17915;SDS011;9083;49.156;8.982;2023-05-09T05:38:26;25.40;;;15.47;;
17915;SDS011;9083;49.156;8.982;2023-05-09T05:40:53;30.17;;;16.87;;
17915;SDS011;9083;49.156;8.982;2023-05-09T05:43:19;25.07;;;15.70;;
17915;SDS011;9083;49.156;8.982;2023-05-09T05:45:46;31.07;;;16.63;;
17915;SDS011;9083;49.156;8.982;2023-05-09T05:48:13;29.93;;;15.63;;
17915;SDS011;9083;49.156;8.982;2023-05-09T05:50:40;26.00;;;15.53;;
17915;SDS011;9083;49.156;8.982;2023-05-09T05:53:06;34.90;;;15.20;;
17915;SDS011;9083;49.156;8.982;2023-05-09T05:55:32;26.13;;;15.57;;
17915;SDS011;9083;49.156;8.982;2023-05-09T05:57:59;28.83;;;14.87;;
17915;SDS011;9083;49.156;8.982;2023-05-09T06:00:25;30.93;;;14.97;;
17915;SDS011;9083;49.156;8.982;2023-05-09T06:02:52;23.53;;;14.57;;
17915;SDS011;9083;49.156;8.982;2023-05-09T06:05:20;21.90;;;13.60;;
17915;SDS011;9083;49.156;8.982;2023-05-09T06:07:46;22.53;;;14.40;;
17915;SDS011;9083;49.156;8.982;2023-05-09T06:10:16;23.60;;;14.07;;
17915;SDS011;9083;49.156;8.982;2023-05-09T06:12:42;26.37;;;15.33;;
17915;SDS011;9083;49.156;8.982;2023-05-09T06:15:09;24.00;;;15.10;;
17915;SDS011;9083;49.156;8.982;2023-05-09T06:17:35;32.30;;;14.53;;
17915;SDS011;9083;49.156;8.982;2023-05-09T06:20:05;24.63;;;14.17;;
17915;SDS011;9083;49.156;8.982;2023-05-09T06:22:33;22.63;;;14.77;;
17915;SDS011;9083;49.156;8.982;2023-05-09T06:25:00;22.80;;;14.63;;
17915;SDS011;9083;49.156;8.982;2023-05-09T06:27:26;26.87;;;14.70;;
17915;SDS011;9083;49.156;8.982;2023-05-09T06:29:52;24.23;;;15.20;;
17915;SDS011;9083;49.156;8.982;2023-05-09T06:32:19;22.40;;;14.67;;
17915;SDS011;9083;49.156;8.982;2023-05-09T06:34:45;22.67;;;13.93;;
17915;SDS011;9083;49.156;8.982;2023-05-09T06:37:12;19.67;;;13.30;;
17915;SDS011;9083;49.156;8.982;2023-05-09T06:39:40;26.70;;;14.30;;
17915;SDS011;9083;49.156;8.982;2023-05-09T06:42:09;22.90;;;14.00;;
17915;SDS011;9083;49.156;8.982;2023-05-09T06:44:35;19.87;;;13.00;;
17915;SDS011;9083;49.156;8.982;2023-05-09T06:47:02;24.13;;;14.93;;
17915;SDS011;9083;49.156;8.982;2023-05-09T06:49:29;21.07;;;12.23;;
17915;SDS011;9083;49.156;8.982;2023-05-09T06:51:55;28.17;;;15.47;;
17915;SDS011;9083;49.156;8.982;2023-05-09T06:54:21;21.17;;;13.93;;
17915;SDS011;9083;49.156;8.982;2023-05-09T06:56:49;21.67;;;14.07;;
17915;SDS011;9083;49.156;8.982;2023-05-09T06:59:15;27.60;;;15.00;;
17915;SDS011;9083;49.156;8.982;2023-05-09T07:01:42;26.73;;;13.43;;
17915;SDS011;9083;49.156;8.982;2023-05-09T07:04:08;20.63;;;14.37;;
17915;SDS011;9083;49.156;8.982;2023-05-09T07:06:35;25.80;;;15.33;;
17915;SDS011;9083;49.156;8.982;2023-05-09T07:09:01;22.20;;;13.23;;
17915;SDS011;9083;49.156;8.982;2023-05-09T07:11:31;20.17;;;13.40;;
17915;SDS011;9083;49.156;8.982;2023-05-09T07:14:00;20.77;;;13.63;;
17915;SDS011;9083;49.156;8.982;2023-05-09T07:16:26;23.27;;;14.20;;
17915;SDS011;9083;49.156;8.982;2023-05-09T07:18:53;21.27;;;14.00;;
17915;SDS011;9083;49.156;8.982;2023-05-09T07:21:19;25.50;;;14.63;;
17915;SDS011;9083;49.156;8.982;2023-05-09T07:23:46;25.63;;;13.97;;
17915;SDS011;9083;49.156;8.982;2023-05-09T07:26:12;23.27;;;13.30;;
17915;SDS011;9083;49.156;8.982;2023-05-09T07:28:39;19.10;;;12.30;;
17915;SDS011;9083;49.156;8.982;2023-05-09T07:31:06;27.67;;;14.40;;
17915;SDS011;9083;49.156;8.982;2023-05-09T07:33:33;39.73;;;15.30;;
17915;SDS011;9083;49.156;8.982;2023-05-09T07:36:00;24.77;;;14.27;;
17915;SDS011;9083;49.156;8.982;2023-05-09T07:38:26;20.80;;;14.23;;
17915;SDS011;9083;49.156;8.982;2023-05-09T07:40:52;24.37;;;14.87;;
17915;SDS011;9083;49.156;8.982;2023-05-09T07:43:19;22.17;;;14.53;;
17915;SDS011;9083;49.156;8.982;2023-05-09T07:45:45;19.90;;;13.87;;
17915;SDS011;9083;49.156;8.982;2023-05-09T07:48:13;30.20;;;14.87;;
17915;SDS011;9083;49.156;8.982;2023-05-09T07:50:39;25.07;;;14.73;;
17915;SDS011;9083;49.156;8.982;2023-05-09T07:53:06;22.07;;;13.77;;
17915;SDS011;9083;49.156;8.982;2023-05-09T07:55:32;24.53;;;12.93;;
17915;SDS011;9083;49.156;8.982;2023-05-09T07:57:59;25.47;;;14.47;;
17915;SDS011;9083;49.156;8.982;2023-05-09T08:00:25;25.40;;;12.83;;
17915;SDS011;9083;49.156;8.982;2023-05-09T08:02:52;22.53;;;13.63;;
17915;SDS011;9083;49.156;8.982;2023-05-09T08:05:22;17.17;;;12.33;;
17915;SDS011;9083;49.156;8.982;2023-05-09T08:07:49;17.13;;;12.67;;
17915;SDS011;9083;49.156;8.982;2023-05-09T08:10:15;22.00;;;12.30;;
17915;SDS011;9083;49.156;8.982;2023-05-09T08:12:42;26.87;;;12.53;;
17915;SDS011;9083;49.156;8.982;2023-05-09T08:15:08;24.80;;;12.27;;
17915;SDS011;9083;49.156;8.982;2023-05-09T08:17:35;15.83;;;11.03;;
17915;SDS011;9083;49.156;8.982;2023-05-09T08:20:01;16.80;;;12.00;;
17915;SDS011;9083;49.156;8.982;2023-05-09T08:22:31;15.20;;;11.37;;
17915;SDS011;9083;49.156;8.982;2023-05-09T08:24:57;17.43;;;12.07;;
17915;SDS011;9083;49.156;8.982;2023-05-09T08:27:24;20.40;;;13.13;;
17915;SDS011;9083;49.156;8.982;2023-05-09T08:29:50;19.33;;;12.10;;
17915;SDS011;9083;49.156;8.982;2023-05-09T08:32:16;22.90;;;12.87;;
17915;SDS011;9083;49.156;8.982;2023-05-09T08:34:43;22.13;;;13.40;;
17915;SDS011;9083;49.156;8.982;2023-05-09T08:37:10;23.30;;;14.20;;
17915;SDS011;9083;49.156;8.982;2023-05-09T08:39:38;27.40;;;14.07;;
17915;SDS011;9083;49.156;8.982;2023-05-09T08:42:04;21.93;;;13.83;;
17915;SDS011;9083;49.156;8.982;2023-05-09T08:44:31;24.50;;;13.50;;
17915;SDS011;9083;49.156;8.982;2023-05-09T08:46:58;26.80;;;14.07;;
17915;SDS011;9083;49.156;8.982;2023-05-09T08:49:25;20.07;;;11.83;;
17915;SDS011;9083;49.156;8.982;2023-05-09T08:51:52;24.20;;;13.53;;
17915;SDS011;9083;49.156;8.982;2023-05-09T08:54:18;28.13;;;14.67;;
17915;SDS011;9083;49.156;8.982;2023-05-09T08:56:47;21.53;;;14.50;;
17915;SDS011;9083;49.156;8.982;2023-05-09T08:59:14;18.30;;;13.13;;
17915;SDS011;9083;49.156;8.982;2023-05-09T09:01:41;20.03;;;13.97;;
17915;SDS011;9083;49.156;8.982;2023-05-09T09:04:08;18.00;;;12.07;;
17915;SDS011;9083;49.156;8.982;2023-05-09T09:06:36;20.57;;;12.17;;
17915;SDS011;9083;49.156;8.982;2023-05-09T09:09:02;31.87;;;13.43;;
17915;SDS011;9083;49.156;8.982;2023-05-09T09:11:31;20.07;;;12.50;;
17915;SDS011;9083;49.156;8.982;2023-05-09T09:13:59;21.80;;;13.47;;
17915;SDS011;9083;49.156;8.982;2023-05-09T09:16:26;16.23;;;11.73;;
17915;SDS011;9083;49.156;8.982;2023-05-09T09:18:54;30.10;;;12.43;;
17915;SDS011;9083;49.156;8.982;2023-05-09T09:21:21;11.23;;;8.93;;
17915;SDS011;9083;49.156;8.982;2023-05-09T09:23:48;15.17;;;10.77;;
17915;SDS011;9083;49.156;8.982;2023-05-09T09:26:14;19.70;;;13.07;;
17915;SDS011;9083;49.156;8.982;2023-05-09T09:28:41;17.07;;;11.47;;
17915;SDS011;9083;49.156;8.982;2023-05-09T09:31:21;24.60;;;12.30;;
17915;SDS011;9083;49.156;8.982;2023-05-09T09:33:48;16.73;;;11.03;;
17915;SDS011;9083;49.156;8.982;2023-05-09T09:36:15;22.37;;;12.17;;
17915;SDS011;9083;49.156;8.982;2023-05-09T09:38:41;17.53;;;11.23;;
17915;SDS011;9083;49.156;8.982;2023-05-09T09:41:08;21.33;;;12.53;;
17915;SDS011;9083;49.156;8.982;2023-05-09T09:43:35;19.30;;;12.53;;
17915;SDS011;9083;49.156;8.982;2023-05-09T09:46:02;17.37;;;12.67;;
17915;SDS011;9083;49.156;8.982;2023-05-09T09:48:31;19.80;;;12.23;;
17915;SDS011;9083;49.156;8.982;2023-05-09T09:50:57;16.17;;;11.13;;
17915;SDS011;9083;49.156;8.982;2023-05-09T09:53:27;20.97;;;10.53;;
17915;SDS011;9083;49.156;8.982;2023-05-09T09:55:54;15.60;;;11.07;;
17915;SDS011;9083;49.156;8.982;2023-05-09T09:58:21;16.37;;;10.10;;
17915;SDS011;9083;49.156;8.982;2023-05-09T10:01:02;10.90;;;7.73;;
17915;SDS011;9083;49.156;8.982;2023-05-09T10:03:35;14.07;;;7.90;;
17915;SDS011;9083;49.156;8.982;2023-05-09T10:06:02;7.50;;;6.00;;
17915;SDS011;9083;49.156;8.982;2023-05-09T10:08:28;10.43;;;6.93;;
17915;SDS011;9083;49.156;8.982;2023-05-09T10:10:55;11.43;;;8.83;;
17915;SDS011;9083;49.156;8.982;2023-05-09T10:13:22;8.43;;;6.87;;
17915;SDS011;9083;49.156;8.982;2023-05-09T10:15:50;8.40;;;6.53;;
17915;SDS011;9083;49.156;8.982;2023-05-09T10:18:16;14.67;;;7.83;;
17915;SDS011;9083;49.156;8.982;2023-05-09T10:20:46;10.00;;;7.03;;
17915;SDS011;9083;49.156;8.982;2023-05-09T10:23:13;10.10;;;6.80;;
17915;SDS011;9083;49.156;8.982;2023-05-09T10:25:43;10.67;;;6.70;;
17915;SDS011;9083;49.156;8.982;2023-05-09T10:28:10;5.67;;;4.87;;
17915;SDS011;9083;49.156;8.982;2023-05-09T10:30:39;11.50;;;5.83;;
17915;SDS011;9083;49.156;8.982;2023-05-09T10:33:06;8.50;;;5.20;;
17915;SDS011;9083;49.156;8.982;2023-05-09T10:35:35;7.30;;;5.57;;
17915;SDS011;9083;49.156;8.982;2023-05-09T10:38:03;6.43;;;4.90;;
17915;SDS011;9083;49.156;8.982;2023-05-09T10:40:30;8.13;;;6.60;;
17915;SDS011;9083;49.156;8.982;2023-05-09T10:42:57;9.20;;;6.80;;
17915;SDS011;9083;49.156;8.982;2023-05-09T10:45:23;8.05;;;6.50;;
17915;SDS011;9083;49.156;8.982;2023-05-09T10:47:50;11.43;;;6.93;;
17915;SDS011;9083;49.156;8.982;2023-05-09T10:50:17;7.30;;;6.22;;
17915;SDS011;9083;49.156;8.982;2023-05-09T10:53:05;7.55;;;6.05;;
17915;SDS011;9083;49.156;8.982;2023-05-09T10:55:35;15.93;;;8.93;;
17915;SDS011;9083;49.156;8.982;2023-05-09T10:58:06;10.70;;;7.70;;
17915;SDS011;9083;49.156;8.982;2023-05-09T11:00:43;11.07;;;7.60;;
17915;SDS011;9083;49.156;8.982;2023-05-09T11:03:10;10.70;;;7.70;;
17915;SDS011;9083;49.156;8.982;2023-05-09T11:05:37;9.75;;;8.27;;
17915;SDS011;9083;49.156;8.982;2023-05-09T11:10:55;12.32;;;8.98;;
17915;SDS011;9083;49.156;8.982;2023-05-09T11:13:24;14.53;;;9.10;;
17915;SDS011;9083;49.156;8.982;2023-05-09T11:21:22;13.50;;;9.43;;
17915;SDS011;9083;49.156;8.982;2023-05-09T11:23:48;11.45;;;8.40;;
17915;SDS011;9083;49.156;8.982;2023-05-09T11:26:17;8.90;;;7.25;;
17915;SDS011;9083;49.156;8.982;2023-05-09T11:28:50;8.67;;;6.27;;
17915;SDS011;9083;49.156;8.982;2023-05-09T11:31:17;7.43;;;6.40;;
17915;SDS011;9083;49.156;8.982;2023-05-09T11:33:44;6.85;;;5.75;;
17915;SDS011;9083;49.156;8.982;2023-05-09T11:36:15;6.88;;;6.22;;
17915;SDS011;9083;49.156;8.982;2023-05-09T11:38:42;7.60;;;6.80;;
17915;SDS011;9083;49.156;8.982;2023-05-09T11:41:09;8.83;;;7.27;;
17915;SDS011;9083;49.156;8.982;2023-05-09T11:43:37;6.35;;;5.75;;
17915;SDS011;9083;49.156;8.982;2023-05-09T11:46:03;9.80;;;7.57;;
17915;SDS011;9083;49.156;8.982;2023-05-09T11:48:36;13.53;;;7.87;;
17915;SDS011;9083;49.156;8.982;2023-05-09T11:51:02;11.40;;;8.03;;
17915;SDS011;9083;49.156;8.982;2023-05-09T11:53:29;11.63;;;7.50;;
17915;SDS011;9083;49.156;8.982;2023-05-09T11:55:56;12.45;;;8.32;;
17915;SDS011;9083;49.156;8.982;2023-05-09T11:58:22;7.97;;;6.88;;
17915;SDS011;9083;49.156;8.982;2023-05-09T12:00:50;7.82;;;6.25;;
17915;SDS011;9083;49.156;8.982;2023-05-09T12:03:17;7.07;;;6.35;;
17915;SDS011;9083;49.156;8.982;2023-05-09T12:05:43;10.80;;;6.67;;
17915;SDS011;9083;49.156;8.982;2023-05-09T12:08:09;7.57;;;5.83;;
17915;SDS011;9083;49.156;8.982;2023-05-09T12:10:36;6.43;;;5.20;;
17915;SDS011;9083;49.156;8.982;2023-05-09T12:13:03;11.50;;;5.95;;
17915;SDS011;9083;49.156;8.982;2023-05-09T12:15:34;5.30;;;4.90;;
17915;SDS011;9083;49.156;8.982;2023-05-09T12:18:02;9.52;;;5.43;;
17915;SDS011;9083;49.156;8.982;2023-05-09T12:20:38;6.53;;;4.72;;
17915;SDS011;9083;49.156;8.982;2023-05-09T12:23:05;4.50;;;4.13;;
17915;SDS011;9083;49.156;8.982;2023-05-09T12:25:32;4.82;;;4.32;;
17915;SDS011;9083;49.156;8.982;2023-05-09T12:27:58;8.15;;;4.50;;
17915;SDS011;9083;49.156;8.982;2023-05-09T12:30:25;5.43;;;4.57;;
17915;SDS011;9083;49.156;8.982;2023-05-09T12:32:51;6.43;;;4.72;;
17915;SDS011;9083;49.156;8.982;2023-05-09T12:35:19;7.22;;;4.80;;
17915;SDS011;9083;49.156;8.982;2023-05-09T12:37:53;5.50;;;4.10;;
17915;SDS011;9083;49.156;8.982;2023-05-09T12:40:20;22.05;;;5.95;;
17915;SDS011;9083;49.156;8.982;2023-05-09T12:42:46;5.28;;;3.55;;
17915;SDS011;9083;49.156;8.982;2023-05-09T12:45:13;4.03;;;3.72;;
17915;SDS011;9083;49.156;8.982;2023-05-09T12:47:39;8.52;;;3.95;;
17915;SDS011;9083;49.156;8.982;2023-05-09T12:50:08;4.30;;;3.38;;
17915;SDS011;9083;49.156;8.982;2023-05-09T12:52:37;6.88;;;3.88;;
17915;SDS011;9083;49.156;8.982;2023-05-09T12:55:04;4.93;;;3.70;;
17915;SDS011;9083;49.156;8.982;2023-05-09T12:57:31;8.88;;;4.47;;
17915;SDS011;9083;49.156;8.982;2023-05-09T12:59:57;7.45;;;3.83;;
17915;SDS011;9083;49.156;8.982;2023-05-09T13:02:24;7.88;;;3.80;;
17915;SDS011;9083;49.156;8.982;2023-05-09T13:05:03;6.55;;;3.83;;
17915;SDS011;9083;49.156;8.982;2023-05-09T13:07:38;3.75;;;3.53;;
17915;SDS011;9083;49.156;8.982;2023-05-09T13:10:08;10.80;;;3.55;;
17915;SDS011;9083;49.156;8.982;2023-05-09T13:12:35;3.60;;;3.40;;
17915;SDS011;9083;49.156;8.982;2023-05-09T13:15:02;4.47;;;4.07;;
17915;SDS011;9083;49.156;8.982;2023-05-09T13:17:29;4.85;;;3.35;;
17915;SDS011;9083;49.156;8.982;2023-05-09T13:19:55;4.13;;;3.83;;
17915;SDS011;9083;49.156;8.982;2023-05-09T13:22:21;6.75;;;3.90;;
17915;SDS011;9083;49.156;8.982;2023-05-09T13:24:49;3.70;;;3.40;;
17915;SDS011;9083;49.156;8.982;2023-05-09T13:27:16;5.72;;;3.65;;
17915;SDS011;9083;49.156;8.982;2023-05-09T13:29:42;12.60;;;4.68;;
17915;SDS011;9083;49.156;8.982;2023-05-09T13:32:08;4.25;;;3.17;;
17915;SDS011;9083;49.156;8.982;2023-05-09T13:34:35;3.50;;;3.30;;
17915;SDS011;9083;49.156;8.982;2023-05-09T13:37:01;4.05;;;3.75;;
17915;SDS011;9083;49.156;8.982;2023-05-09T13:39:28;3.38;;;3.00;;
17915;SDS011;9083;49.156;8.982;2023-05-09T13:41:55;4.38;;;3.60;;
17915;SDS011;9083;49.156;8.982;2023-05-09T13:44:22;3.53;;;3.30;;
17915;SDS011;9083;49.156;8.982;2023-05-09T13:46:48;19.35;;;4.43;;
17915;SDS011;9083;49.156;8.982;2023-05-09T13:49:15;4.03;;;3.70;;
17915;SDS011;9083;49.156;8.982;2023-05-09T13:51:42;5.00;;;3.50;;
17915;SDS011;9083;49.156;8.982;2023-05-09T13:54:09;5.53;;;3.45;;
17915;SDS011;9083;49.156;8.982;2023-05-09T13:56:37;5.53;;;3.50;;
17915;SDS011;9083;49.156;8.982;2023-05-09T13:59:04;3.42;;;3.13;;
17915;SDS011;9083;49.156;8.982;2023-05-09T14:01:31;5.05;;;3.63;;
17915;SDS011;9083;49.156;8.982;2023-05-09T14:03:58;6.57;;;3.75;;
17915;SDS011;9083;49.156;8.982;2023-05-09T14:06:24;5.45;;;3.42;;
17915;SDS011;9083;49.156;8.982;2023-05-09T14:08:50;4.10;;;3.70;;
17915;SDS011;9083;49.156;8.982;2023-05-09T14:11:17;6.90;;;3.83;;
17915;SDS011;9083;49.156;8.982;2023-05-09T14:13:43;4.65;;;2.70;;
17915;SDS011;9083;49.156;8.982;2023-05-09T14:16:11;3.08;;;2.88;;
17915;SDS011;9083;49.156;8.982;2023-05-09T14:18:37;3.30;;;3.10;;
17915;SDS011;9083;49.156;8.982;2023-05-09T14:21:04;3.40;;;3.20;;
17915;SDS011;9083;49.156;8.982;2023-05-09T14:23:31;4.13;;;3.28;;
17915;SDS011;9083;49.156;8.982;2023-05-09T14:25:57;5.28;;;3.80;;
17915;SDS011;9083;49.156;8.982;2023-05-09T14:28:24;7.28;;;4.45;;
17915;SDS011;9083;49.156;8.982;2023-05-09T14:30:50;4.18;;;3.70;;
17915;SDS011;9083;49.156;8.982;2023-05-09T14:33:19;7.15;;;3.92;;
17915;SDS011;9083;49.156;8.982;2023-05-09T14:35:45;3.90;;;3.25;;
17915;SDS011;9083;49.156;8.982;2023-05-09T14:38:11;13.65;;;4.13;;
17915;SDS011;9083;49.156;8.982;2023-05-09T14:40:38;4.57;;;3.58;;
17915;SDS011;9083;49.156;8.982;2023-05-09T14:43:04;12.45;;;4.13;;
17915;SDS011;9083;49.156;8.982;2023-05-09T14:45:31;4.60;;;3.85;;
17915;SDS011;9083;49.156;8.982;2023-05-09T14:47:58;12.00;;;4.10;;
17915;SDS011;9083;49.156;8.982;2023-05-09T14:50:25;7.13;;;4.70;;